sensor_id;sensor_type;location;lat;lon;timestamp;P1;durP1;ratioP1;P2;durP2;ratioP2
54795;SDS011;40693;43.884;20.340;2023-12-20T00:01:02;274.47;;;156.27;;
54795;SDS011;40693;43.884;20.340;2023-12-20T00:03:28;282.73;;;158.97;;
54795;SDS011;40693;43.884;20.340;2023-12-20T00:05:53;279.63;;;159.37;;
54795;SDS011;40693;43.884;20.340;2023-12-20T00:08:20;279.63;;;155.47;;
54795;SDS011;40693;43.884;20.340;2023-12-20T00:10:46;319.57;;;175.70;;
54795;SDS011;40693;43.884;20.340;2023-12-20T00:13:12;317.90;;;176.00;;
54795;SDS011;40693;43.884;20.340;2023-12-20T00:15:37;281.07;;;157.97;;
54795;SDS011;40693;43.884;20.340;2023-12-20T00:18:03;276.30;;;151.93;;
54795;SDS011;40693;43.884;20.340;2023-12-20T00:20:29;308.07;;;165.77;;
54795;SDS011;40693;43.884;20.340;2023-12-20T00:22:56;283.53;;;159.93;;
54795;SDS011;40693;43.884;20.340;2023-12-20T00:25:25;258.77;;;144.57;;
54795;SDS011;40693;43.884;20.340;2023-12-20T00:27:51;247.93;;;143.90;;
54795;SDS011;40693;43.884;20.340;2023-12-20T00:30:17;241.27;;;140.33;;
54795;SDS011;40693;43.884;20.340;2023-12-20T00:32:43;260.97;;;141.53;;
54795;SDS011;40693;43.884;20.340;2023-12-20T00:35:14;245.73;;;135.10;;
54795;SDS011;40693;43.884;20.340;2023-12-20T00:37:41;238.13;;;128.30;;
54795;SDS011;40693;43.884;20.340;2023-12-20T00:40:10;239.97;;;134.90;;
54795;SDS011;40693;43.884;20.340;2023-12-20T00:42:36;225.23;;;131.20;;
54795;SDS011;40693;43.884;20.340;2023-12-20T00:45:02;227.73;;;132.93;;
54795;SDS011;40693;43.884;20.340;2023-12-20T00:47:29;258.53;;;146.63;;
54795;SDS011;40693;43.884;20.340;2023-12-20T00:49:58;228.53;;;129.00;;
54795;SDS011;40693;43.884;20.340;2023-12-20T00:52:24;216.27;;;121.23;;
54795;SDS011;40693;43.884;20.340;2023-12-20T00:54:50;225.20;;;121.17;;
54795;SDS011;40693;43.884;20.340;2023-12-20T00:57:16;215.87;;;120.93;;
54795;SDS011;40693;43.884;20.340;2023-12-20T00:59:41;235.87;;;129.93;;
54795;SDS011;40693;43.884;20.340;2023-12-20T01:02:07;235.40;;;133.30;;
54795;SDS011;40693;43.884;20.340;2023-12-20T01:04:34;218.20;;;116.43;;
54795;SDS011;40693;43.884;20.340;2023-12-20T01:07:00;219.47;;;119.50;;
54795;SDS011;40693;43.884;20.340;2023-12-20T01:09:25;224.60;;;128.00;;
54795;SDS011;40693;43.884;20.340;2023-12-20T01:11:52;219.03;;;117.80;;
54795;SDS011;40693;43.884;20.340;2023-12-20T01:14:18;218.23;;;122.97;;
54795;SDS011;40693;43.884;20.340;2023-12-20T01:16:44;227.37;;;128.67;;
54795;SDS011;40693;43.884;20.340;2023-12-20T01:19:10;225.83;;;128.20;;
54795;SDS011;40693;43.884;20.340;2023-12-20T01:21:36;215.87;;;121.93;;
54795;SDS011;40693;43.884;20.340;2023-12-20T01:24:01;218.03;;;121.87;;
54795;SDS011;40693;43.884;20.340;2023-12-20T01:26:27;213.07;;;128.03;;
54795;SDS011;40693;43.884;20.340;2023-12-20T01:28:53;206.90;;;115.90;;
54795;SDS011;40693;43.884;20.340;2023-12-20T01:31:19;193.37;;;111.17;;
54795;SDS011;40693;43.884;20.340;2023-12-20T01:33:45;206.30;;;112.00;;
54795;SDS011;40693;43.884;20.340;2023-12-20T01:36:11;188.20;;;107.07;;
54795;SDS011;40693;43.884;20.340;2023-12-20T01:38:37;198.53;;;112.13;;
54795;SDS011;40693;43.884;20.340;2023-12-20T01:41:03;194.93;;;110.20;;
54795;SDS011;40693;43.884;20.340;2023-12-20T01:43:29;183.07;;;107.80;;
54795;SDS011;40693;43.884;20.340;2023-12-20T01:45:58;189.47;;;111.23;;
54795;SDS011;40693;43.884;20.340;2023-12-20T01:48:25;199.83;;;114.53;;
54795;SDS011;40693;43.884;20.340;2023-12-20T01:50:52;194.07;;;114.60;;
54795;SDS011;40693;43.884;20.340;2023-12-20T01:53:19;205.63;;;116.23;;
54795;SDS011;40693;43.884;20.340;2023-12-20T01:55:49;182.20;;;105.13;;
54795;SDS011;40693;43.884;20.340;2023-12-20T01:58:17;183.13;;;104.97;;
54795;SDS011;40693;43.884;20.340;2023-12-20T02:00:44;171.50;;;102.33;;
54795;SDS011;40693;43.884;20.340;2023-12-20T02:03:10;190.20;;;108.07;;
54795;SDS011;40693;43.884;20.340;2023-12-20T02:05:37;192.43;;;113.53;;
54795;SDS011;40693;43.884;20.340;2023-12-20T02:08:04;208.03;;;117.30;;
54795;SDS011;40693;43.884;20.340;2023-12-20T02:10:30;192.17;;;108.70;;
54795;SDS011;40693;43.884;20.340;2023-12-20T02:12:57;178.53;;;106.80;;
54795;SDS011;40693;43.884;20.340;2023-12-20T02:15:23;176.97;;;97.27;;
54795;SDS011;40693;43.884;20.340;2023-12-20T02:17:48;175.00;;;104.07;;
54795;SDS011;40693;43.884;20.340;2023-12-20T02:20:14;181.33;;;102.43;;
54795;SDS011;40693;43.884;20.340;2023-12-20T02:22:40;189.57;;;100.23;;
54795;SDS011;40693;43.884;20.340;2023-12-20T02:25:06;149.33;;;82.87;;
54795;SDS011;40693;43.884;20.340;2023-12-20T02:27:32;193.10;;;92.50;;
54795;SDS011;40693;43.884;20.340;2023-12-20T02:29:59;127.03;;;68.83;;
54795;SDS011;40693;43.884;20.340;2023-12-20T02:32:25;127.00;;;75.57;;
54795;SDS011;40693;43.884;20.340;2023-12-20T02:34:54;133.33;;;74.30;;
54795;SDS011;40693;43.884;20.340;2023-12-20T02:37:20;127.20;;;71.17;;
54795;SDS011;40693;43.884;20.340;2023-12-20T02:39:46;120.00;;;68.47;;
54795;SDS011;40693;43.884;20.340;2023-12-20T02:42:12;97.67;;;57.63;;
54795;SDS011;40693;43.884;20.340;2023-12-20T02:44:38;100.33;;;57.87;;
54795;SDS011;40693;43.884;20.340;2023-12-20T02:47:04;104.90;;;63.87;;
54795;SDS011;40693;43.884;20.340;2023-12-20T02:49:30;110.00;;;65.23;;
54795;SDS011;40693;43.884;20.340;2023-12-20T02:51:55;123.43;;;70.70;;
54795;SDS011;40693;43.884;20.340;2023-12-20T02:54:21;128.33;;;70.57;;
54795;SDS011;40693;43.884;20.340;2023-12-20T02:56:47;111.67;;;64.63;;
54795;SDS011;40693;43.884;20.340;2023-12-20T02:59:13;117.20;;;65.30;;
54795;SDS011;40693;43.884;20.340;2023-12-20T03:01:43;128.03;;;73.50;;
54795;SDS011;40693;43.884;20.340;2023-12-20T03:04:09;135.33;;;79.00;;
54795;SDS011;40693;43.884;20.340;2023-12-20T03:06:35;126.90;;;73.20;;
54795;SDS011;40693;43.884;20.340;2023-12-20T03:09:01;128.43;;;74.47;;
54795;SDS011;40693;43.884;20.340;2023-12-20T03:11:27;144.47;;;80.77;;
54795;SDS011;40693;43.884;20.340;2023-12-20T03:13:53;149.93;;;81.90;;
54795;SDS011;40693;43.884;20.340;2023-12-20T03:16:22;154.63;;;83.73;;
54795;SDS011;40693;43.884;20.340;2023-12-20T03:18:48;164.40;;;89.97;;
54795;SDS011;40693;43.884;20.340;2023-12-20T03:21:14;172.40;;;96.93;;
54795;SDS011;40693;43.884;20.340;2023-12-20T03:23:40;215.70;;;120.97;;
54795;SDS011;40693;43.884;20.340;2023-12-20T03:26:08;194.20;;;106.40;;
54795;SDS011;40693;43.884;20.340;2023-12-20T03:28:35;192.17;;;105.50;;
54795;SDS011;40693;43.884;20.340;2023-12-20T03:31:02;182.70;;;109.53;;
54795;SDS011;40693;43.884;20.340;2023-12-20T03:33:28;166.33;;;94.10;;
54795;SDS011;40693;43.884;20.340;2023-12-20T03:35:54;150.37;;;87.30;;
54795;SDS011;40693;43.884;20.340;2023-12-20T03:38:20;149.17;;;84.63;;
54795;SDS011;40693;43.884;20.340;2023-12-20T03:40:48;145.27;;;78.27;;
54795;SDS011;40693;43.884;20.340;2023-12-20T03:43:15;125.60;;;68.97;;
54795;SDS011;40693;43.884;20.340;2023-12-20T03:45:41;130.60;;;70.57;;
54795;SDS011;40693;43.884;20.340;2023-12-20T03:48:08;129.07;;;74.50;;
54795;SDS011;40693;43.884;20.340;2023-12-20T03:50:34;137.47;;;74.73;;
54795;SDS011;40693;43.884;20.340;2023-12-20T03:53:00;122.77;;;71.47;;
54795;SDS011;40693;43.884;20.340;2023-12-20T03:55:26;119.23;;;67.00;;
54795;SDS011;40693;43.884;20.340;2023-12-20T03:57:51;124.40;;;74.37;;
54795;SDS011;40693;43.884;20.340;2023-12-20T04:00:17;124.50;;;72.33;;
54795;SDS011;40693;43.884;20.340;2023-12-20T04:02:43;127.27;;;77.33;;
54795;SDS011;40693;43.884;20.340;2023-12-20T04:05:09;134.13;;;75.43;;
54795;SDS011;40693;43.884;20.340;2023-12-20T04:07:35;145.30;;;86.03;;
54795;SDS011;40693;43.884;20.340;2023-12-20T04:10:01;145.50;;;83.60;;
54795;SDS011;40693;43.884;20.340;2023-12-20T04:12:29;158.97;;;91.47;;
54795;SDS011;40693;43.884;20.340;2023-12-20T04:14:55;156.20;;;93.70;;
54795;SDS011;40693;43.884;20.340;2023-12-20T04:17:21;172.80;;;96.97;;
54795;SDS011;40693;43.884;20.340;2023-12-20T04:19:48;165.87;;;94.43;;
54795;SDS011;40693;43.884;20.340;2023-12-20T04:22:14;213.13;;;116.90;;
54795;SDS011;40693;43.884;20.340;2023-12-20T04:24:40;189.97;;;106.60;;
54795;SDS011;40693;43.884;20.340;2023-12-20T04:27:07;190.13;;;107.77;;
54795;SDS011;40693;43.884;20.340;2023-12-20T04:29:33;178.93;;;98.97;;
54795;SDS011;40693;43.884;20.340;2023-12-20T04:31:59;154.07;;;92.90;;
54795;SDS011;40693;43.884;20.340;2023-12-20T04:34:25;143.93;;;88.60;;
54795;SDS011;40693;43.884;20.340;2023-12-20T04:36:51;138.23;;;82.80;;
54795;SDS011;40693;43.884;20.340;2023-12-20T04:39:17;158.07;;;89.43;;
54795;SDS011;40693;43.884;20.340;2023-12-20T04:41:43;156.43;;;90.30;;
54795;SDS011;40693;43.884;20.340;2023-12-20T04:44:09;158.93;;;91.70;;
54795;SDS011;40693;43.884;20.340;2023-12-20T04:46:34;150.40;;;85.33;;
54795;SDS011;40693;43.884;20.340;2023-12-20T04:49:00;139.43;;;86.57;;
54795;SDS011;40693;43.884;20.340;2023-12-20T04:51:26;150.80;;;86.10;;
54795;SDS011;40693;43.884;20.340;2023-12-20T04:53:52;144.93;;;85.83;;
54795;SDS011;40693;43.884;20.340;2023-12-20T04:56:18;148.87;;;84.17;;
54795;SDS011;40693;43.884;20.340;2023-12-20T04:58:44;156.83;;;88.00;;
54795;SDS011;40693;43.884;20.340;2023-12-20T05:01:10;149.80;;;81.57;;
54795;SDS011;40693;43.884;20.340;2023-12-20T05:03:37;135.97;;;82.30;;
54795;SDS011;40693;43.884;20.340;2023-12-20T05:06:02;142.57;;;81.40;;
54795;SDS011;40693;43.884;20.340;2023-12-20T05:08:28;173.67;;;97.90;;
54795;SDS011;40693;43.884;20.340;2023-12-20T05:10:54;196.27;;;107.47;;
54795;SDS011;40693;43.884;20.340;2023-12-20T05:13:20;185.30;;;104.23;;
54795;SDS011;40693;43.884;20.340;2023-12-20T05:15:46;203.73;;;113.70;;
54795;SDS011;40693;43.884;20.340;2023-12-20T05:18:12;191.30;;;110.57;;
54795;SDS011;40693;43.884;20.340;2023-12-20T05:20:38;212.47;;;117.27;;
54795;SDS011;40693;43.884;20.340;2023-12-20T05:23:04;184.60;;;104.50;;
54795;SDS011;40693;43.884;20.340;2023-12-20T05:25:30;190.00;;;105.77;;
54795;SDS011;40693;43.884;20.340;2023-12-20T05:27:56;182.17;;;103.73;;
54795;SDS011;40693;43.884;20.340;2023-12-20T05:30:22;193.67;;;109.90;;
54795;SDS011;40693;43.884;20.340;2023-12-20T05:32:48;182.80;;;102.10;;
54795;SDS011;40693;43.884;20.340;2023-12-20T05:35:13;219.20;;;118.60;;
54795;SDS011;40693;43.884;20.340;2023-12-20T05:37:40;233.30;;;128.37;;
54795;SDS011;40693;43.884;20.340;2023-12-20T05:40:06;198.20;;;110.23;;
54795;SDS011;40693;43.884;20.340;2023-12-20T05:42:35;153.00;;;89.30;;
54795;SDS011;40693;43.884;20.340;2023-12-20T05:45:02;140.43;;;76.07;;
54795;SDS011;40693;43.884;20.340;2023-12-20T05:47:28;308.17;;;157.07;;
54795;SDS011;40693;43.884;20.340;2023-12-20T05:49:53;251.00;;;134.63;;
54795;SDS011;40693;43.884;20.340;2023-12-20T05:52:19;157.20;;;87.40;;
54795;SDS011;40693;43.884;20.340;2023-12-20T05:54:45;286.63;;;137.07;;
54795;SDS011;40693;43.884;20.340;2023-12-20T05:57:11;277.80;;;144.97;;
54795;SDS011;40693;43.884;20.340;2023-12-20T05:59:36;228.87;;;119.03;;
54795;SDS011;40693;43.884;20.340;2023-12-20T06:02:03;207.60;;;110.67;;
54795;SDS011;40693;43.884;20.340;2023-12-20T06:04:29;159.83;;;87.63;;
54795;SDS011;40693;43.884;20.340;2023-12-20T06:06:55;157.20;;;86.90;;
54795;SDS011;40693;43.884;20.340;2023-12-20T06:09:21;163.67;;;85.27;;
54795;SDS011;40693;43.884;20.340;2023-12-20T06:11:47;161.07;;;90.93;;
54795;SDS011;40693;43.884;20.340;2023-12-20T06:14:13;141.70;;;82.47;;
54795;SDS011;40693;43.884;20.340;2023-12-20T06:16:38;172.30;;;87.10;;
54795;SDS011;40693;43.884;20.340;2023-12-20T06:19:04;158.13;;;90.00;;
54795;SDS011;40693;43.884;20.340;2023-12-20T06:21:30;167.77;;;93.33;;
54795;SDS011;40693;43.884;20.340;2023-12-20T06:23:56;199.07;;;107.43;;
54795;SDS011;40693;43.884;20.340;2023-12-20T06:26:22;180.77;;;103.07;;
54795;SDS011;40693;43.884;20.340;2023-12-20T06:28:48;224.33;;;124.00;;
54795;SDS011;40693;43.884;20.340;2023-12-20T06:31:14;228.97;;;124.17;;
54795;SDS011;40693;43.884;20.340;2023-12-20T06:33:40;208.23;;;117.17;;
54795;SDS011;40693;43.884;20.340;2023-12-20T06:36:06;186.43;;;106.13;;
54795;SDS011;40693;43.884;20.340;2023-12-20T06:38:32;210.90;;;114.07;;
54795;SDS011;40693;43.884;20.340;2023-12-20T06:40:57;215.83;;;122.20;;
54795;SDS011;40693;43.884;20.340;2023-12-20T06:43:24;208.33;;;118.87;;
54795;SDS011;40693;43.884;20.340;2023-12-20T06:45:50;273.53;;;148.90;;
54795;SDS011;40693;43.884;20.340;2023-12-20T06:48:16;282.73;;;163.47;;
54795;SDS011;40693;43.884;20.340;2023-12-20T06:50:41;281.43;;;164.07;;
54795;SDS011;40693;43.884;20.340;2023-12-20T06:53:07;245.53;;;141.23;;
54795;SDS011;40693;43.884;20.340;2023-12-20T06:55:34;238.67;;;134.20;;
54795;SDS011;40693;43.884;20.340;2023-12-20T06:58:01;241.47;;;139.10;;
54795;SDS011;40693;43.884;20.340;2023-12-20T07:00:27;237.93;;;141.60;;
54795;SDS011;40693;43.884;20.340;2023-12-20T07:02:53;247.53;;;140.33;;
54795;SDS011;40693;43.884;20.340;2023-12-20T07:05:20;242.87;;;137.97;;
54795;SDS011;40693;43.884;20.340;2023-12-20T07:07:46;226.20;;;130.70;;
54795;SDS011;40693;43.884;20.340;2023-12-20T07:10:12;184.50;;;114.07;;
54795;SDS011;40693;43.884;20.340;2023-12-20T07:12:38;198.17;;;114.87;;
54795;SDS011;40693;43.884;20.340;2023-12-20T07:15:04;213.63;;;120.93;;
54795;SDS011;40693;43.884;20.340;2023-12-20T07:17:33;205.27;;;119.87;;
54795;SDS011;40693;43.884;20.340;2023-12-20T07:19:59;211.57;;;128.57;;
54795;SDS011;40693;43.884;20.340;2023-12-20T07:22:29;207.00;;;116.30;;
54795;SDS011;40693;43.884;20.340;2023-12-20T07:24:57;205.83;;;120.13;;
54795;SDS011;40693;43.884;20.340;2023-12-20T07:27:23;194.40;;;111.80;;
54795;SDS011;40693;43.884;20.340;2023-12-20T07:29:49;185.23;;;110.30;;
54795;SDS011;40693;43.884;20.340;2023-12-20T07:32:15;195.10;;;114.83;;
54795;SDS011;40693;43.884;20.340;2023-12-20T07:34:41;212.90;;;122.93;;
54795;SDS011;40693;43.884;20.340;2023-12-20T07:37:06;211.57;;;121.20;;
54795;SDS011;40693;43.884;20.340;2023-12-20T07:39:35;191.63;;;118.40;;
54795;SDS011;40693;43.884;20.340;2023-12-20T07:42:01;200.13;;;116.53;;
54795;SDS011;40693;43.884;20.340;2023-12-20T07:44:26;195.30;;;114.77;;
54795;SDS011;40693;43.884;20.340;2023-12-20T07:46:52;208.67;;;118.60;;
54795;SDS011;40693;43.884;20.340;2023-12-20T07:49:18;173.57;;;102.23;;
54795;SDS011;40693;43.884;20.340;2023-12-20T07:51:44;179.77;;;108.57;;
54795;SDS011;40693;43.884;20.340;2023-12-20T07:54:10;172.37;;;104.47;;
54795;SDS011;40693;43.884;20.340;2023-12-20T07:56:36;225.80;;;131.77;;
54795;SDS011;40693;43.884;20.340;2023-12-20T07:59:02;182.43;;;114.57;;
54795;SDS011;40693;43.884;20.340;2023-12-20T08:01:27;180.37;;;107.30;;
54795;SDS011;40693;43.884;20.340;2023-12-20T08:03:53;188.77;;;114.33;;
54795;SDS011;40693;43.884;20.340;2023-12-20T08:06:19;184.30;;;114.60;;
54795;SDS011;40693;43.884;20.340;2023-12-20T08:08:45;221.83;;;131.37;;
54795;SDS011;40693;43.884;20.340;2023-12-20T08:11:10;201.67;;;119.00;;
54795;SDS011;40693;43.884;20.340;2023-12-20T08:13:36;187.83;;;120.10;;
54795;SDS011;40693;43.884;20.340;2023-12-20T08:16:02;198.07;;;117.30;;
54795;SDS011;40693;43.884;20.340;2023-12-20T08:18:29;204.73;;;122.97;;
54795;SDS011;40693;43.884;20.340;2023-12-20T08:20:55;239.93;;;143.13;;
54795;SDS011;40693;43.884;20.340;2023-12-20T08:23:20;233.17;;;141.10;;
54795;SDS011;40693;43.884;20.340;2023-12-20T08:25:46;207.93;;;130.30;;
54795;SDS011;40693;43.884;20.340;2023-12-20T08:28:13;261.53;;;165.87;;
54795;SDS011;40693;43.884;20.340;2023-12-20T08:30:39;270.07;;;163.30;;
54795;SDS011;40693;43.884;20.340;2023-12-20T08:33:05;269.90;;;163.97;;
54795;SDS011;40693;43.884;20.340;2023-12-20T08:35:36;271.80;;;162.47;;
54795;SDS011;40693;43.884;20.340;2023-12-20T08:38:01;245.13;;;146.40;;
54795;SDS011;40693;43.884;20.340;2023-12-20T08:40:29;242.83;;;143.93;;
54795;SDS011;40693;43.884;20.340;2023-12-20T08:42:54;228.30;;;135.67;;
54795;SDS011;40693;43.884;20.340;2023-12-20T08:45:20;214.77;;;132.23;;
54795;SDS011;40693;43.884;20.340;2023-12-20T08:47:46;217.15;;;135.32;;
54795;SDS011;40693;43.884;20.340;2023-12-20T08:50:12;217.53;;;132.37;;
54795;SDS011;40693;43.884;20.340;2023-12-20T08:52:38;218.70;;;138.82;;
54795;SDS011;40693;43.884;20.340;2023-12-20T08:55:04;238.60;;;149.35;;
54795;SDS011;40693;43.884;20.340;2023-12-20T08:57:30;249.23;;;157.60;;
54795;SDS011;40693;43.884;20.340;2023-12-20T08:59:57;235.32;;;150.20;;
54795;SDS011;40693;43.884;20.340;2023-12-20T09:02:22;236.77;;;150.90;;
54795;SDS011;40693;43.884;20.340;2023-12-20T09:04:48;225.60;;;144.55;;
54795;SDS011;40693;43.884;20.340;2023-12-20T09:07:21;222.27;;;136.32;;
54795;SDS011;40693;43.884;20.340;2023-12-20T09:09:50;181.15;;;120.65;;
54795;SDS011;40693;43.884;20.340;2023-12-20T09:12:19;141.60;;;96.72;;
54795;SDS011;40693;43.884;20.340;2023-12-20T09:14:49;109.28;;;70.57;;
54795;SDS011;40693;43.884;20.340;2023-12-20T09:17:16;107.18;;;69.82;;
54795;SDS011;40693;43.884;20.340;2023-12-20T09:19:43;99.30;;;66.38;;
54795;SDS011;40693;43.884;20.340;2023-12-20T09:22:09;105.60;;;72.07;;
54795;SDS011;40693;43.884;20.340;2023-12-20T09:24:35;121.45;;;76.03;;
54795;SDS011;40693;43.884;20.340;2023-12-20T09:27:01;108.55;;;70.60;;
54795;SDS011;40693;43.884;20.340;2023-12-20T09:29:27;117.63;;;76.97;;
54795;SDS011;40693;43.884;20.340;2023-12-20T09:31:53;113.32;;;75.30;;
54795;SDS011;40693;43.884;20.340;2023-12-20T09:34:20;115.65;;;74.13;;
54795;SDS011;40693;43.884;20.340;2023-12-20T09:36:46;169.25;;;107.47;;
54795;SDS011;40693;43.884;20.340;2023-12-20T09:39:15;179.05;;;118.25;;
54795;SDS011;40693;43.884;20.340;2023-12-20T09:41:46;179.52;;;115.20;;
54795;SDS011;40693;43.884;20.340;2023-12-20T09:44:25;149.98;;;96.75;;
54795;SDS011;40693;43.884;20.340;2023-12-20T09:46:51;140.65;;;93.50;;
54795;SDS011;40693;43.884;20.340;2023-12-20T09:49:19;124.63;;;86.47;;
54795;SDS011;40693;43.884;20.340;2023-12-20T09:51:46;144.82;;;97.05;;
54795;SDS011;40693;43.884;20.340;2023-12-20T09:54:13;186.25;;;125.85;;
54795;SDS011;40693;43.884;20.340;2023-12-20T09:56:40;225.02;;;145.88;;
54795;SDS011;40693;43.884;20.340;2023-12-20T09:59:06;221.55;;;138.63;;
54795;SDS011;40693;43.884;20.340;2023-12-20T10:01:32;247.35;;;153.52;;
54795;SDS011;40693;43.884;20.340;2023-12-20T10:04:00;218.23;;;144.70;;
54795;SDS011;40693;43.884;20.340;2023-12-20T10:06:26;152.82;;;103.78;;
54795;SDS011;40693;43.884;20.340;2023-12-20T10:08:52;135.05;;;91.18;;
54795;SDS011;40693;43.884;20.340;2023-12-20T10:11:18;120.18;;;83.47;;
54795;SDS011;40693;43.884;20.340;2023-12-20T10:13:44;104.65;;;74.50;;
54795;SDS011;40693;43.884;20.340;2023-12-20T10:16:13;113.68;;;79.80;;
54795;SDS011;40693;43.884;20.340;2023-12-20T10:18:39;111.32;;;76.65;;
54795;SDS011;40693;43.884;20.340;2023-12-20T10:21:05;99.22;;;68.07;;
54795;SDS011;40693;43.884;20.340;2023-12-20T10:23:35;93.25;;;66.88;;
54795;SDS011;40693;43.884;20.340;2023-12-20T10:26:01;90.28;;;69.30;;
54795;SDS011;40693;43.884;20.340;2023-12-20T10:28:28;95.68;;;68.38;;
54795;SDS011;40693;43.884;20.340;2023-12-20T10:30:59;125.25;;;87.45;;
54795;SDS011;40693;43.884;20.340;2023-12-20T10:33:27;113.47;;;84.63;;
54795;SDS011;40693;43.884;20.340;2023-12-20T10:35:55;93.55;;;72.43;;
54795;SDS011;40693;43.884;20.340;2023-12-20T10:38:21;96.05;;;72.65;;
54795;SDS011;40693;43.884;20.340;2023-12-20T10:40:47;83.03;;;62.38;;
54795;SDS011;40693;43.884;20.340;2023-12-20T10:43:14;94.75;;;65.78;;
54795;SDS011;40693;43.884;20.340;2023-12-20T10:45:43;86.28;;;64.93;;
54795;SDS011;40693;43.884;20.340;2023-12-20T10:48:10;93.68;;;68.95;;
54795;SDS011;40693;43.884;20.340;2023-12-20T10:50:46;73.47;;;56.55;;
54795;SDS011;40693;43.884;20.340;2023-12-20T10:53:21;77.50;;;56.72;;
54795;SDS011;40693;43.884;20.340;2023-12-20T10:55:48;109.20;;;72.38;;
54795;SDS011;40693;43.884;20.340;2023-12-20T10:58:17;102.03;;;68.85;;
54795;SDS011;40693;43.884;20.340;2023-12-20T11:00:47;105.65;;;69.00;;
54795;SDS011;40693;43.884;20.340;2023-12-20T11:03:16;100.13;;;71.82;;
54795;SDS011;40693;43.884;20.340;2023-12-20T11:05:53;104.72;;;69.85;;
54795;SDS011;40693;43.884;20.340;2023-12-20T11:08:36;80.18;;;59.72;;
54795;SDS011;40693;43.884;20.340;2023-12-20T11:11:21;117.38;;;80.38;;
54795;SDS011;40693;43.884;20.340;2023-12-20T11:14:19;125.65;;;80.80;;
54795;SDS011;40693;43.884;20.340;2023-12-20T11:16:48;126.13;;;84.82;;
54795;SDS011;40693;43.884;20.340;2023-12-20T11:19:16;97.25;;;69.55;;
54795;SDS011;40693;43.884;20.340;2023-12-20T11:21:42;92.80;;;69.28;;
54795;SDS011;40693;43.884;20.340;2023-12-20T11:24:08;100.78;;;70.32;;
54795;SDS011;40693;43.884;20.340;2023-12-20T11:26:35;95.53;;;66.38;;
54795;SDS011;40693;43.884;20.340;2023-12-20T11:32:02;96.60;;;70.70;;
54795;SDS011;40693;43.884;20.340;2023-12-20T11:34:46;99.25;;;72.80;;
54795;SDS011;40693;43.884;20.340;2023-12-20T11:37:11;100.15;;;70.53;;
54795;SDS011;40693;43.884;20.340;2023-12-20T11:39:38;119.32;;;84.68;;
54795;SDS011;40693;43.884;20.340;2023-12-20T11:42:04;115.05;;;79.88;;
54795;SDS011;40693;43.884;20.340;2023-12-20T11:44:31;118.45;;;77.43;;
54795;SDS011;40693;43.884;20.340;2023-12-20T11:46:58;114.13;;;74.93;;
54795;SDS011;40693;43.884;20.340;2023-12-20T11:49:24;94.63;;;66.68;;
54795;SDS011;40693;43.884;20.340;2023-12-20T11:51:50;117.45;;;78.47;;
54795;SDS011;40693;43.884;20.340;2023-12-20T11:54:16;109.25;;;75.22;;
54795;SDS011;40693;43.884;20.340;2023-12-20T11:56:42;98.13;;;61.60;;
54795;SDS011;40693;43.884;20.340;2023-12-20T11:59:08;75.97;;;57.65;;
54795;SDS011;40693;43.884;20.340;2023-12-20T12:01:36;87.03;;;65.82;;
54795;SDS011;40693;43.884;20.340;2023-12-20T12:04:05;131.77;;;87.65;;
54795;SDS011;40693;43.884;20.340;2023-12-20T12:06:32;148.70;;;103.18;;
54795;SDS011;40693;43.884;20.340;2023-12-20T12:08:58;120.38;;;85.85;;
54795;SDS011;40693;43.884;20.340;2023-12-20T12:11:23;109.00;;;83.75;;
54795;SDS011;40693;43.884;20.340;2023-12-20T12:13:49;78.88;;;60.83;;
54795;SDS011;40693;43.884;20.340;2023-12-20T12:16:19;94.38;;;60.35;;
54795;SDS011;40693;43.884;20.340;2023-12-20T12:18:46;86.93;;;57.80;;
54795;SDS011;40693;43.884;20.340;2023-12-20T12:21:20;83.40;;;54.03;;
54795;SDS011;40693;43.884;20.340;2023-12-20T12:23:45;74.63;;;51.67;;
54795;SDS011;40693;43.884;20.340;2023-12-20T12:26:11;79.63;;;55.80;;
54795;SDS011;40693;43.884;20.340;2023-12-20T12:28:39;86.30;;;58.28;;
54795;SDS011;40693;43.884;20.340;2023-12-20T12:31:06;79.40;;;54.55;;
54795;SDS011;40693;43.884;20.340;2023-12-20T12:33:32;71.20;;;54.40;;
54795;SDS011;40693;43.884;20.340;2023-12-20T12:36:00;82.53;;;55.72;;
54795;SDS011;40693;43.884;20.340;2023-12-20T12:38:26;83.78;;;55.00;;
54795;SDS011;40693;43.884;20.340;2023-12-20T12:40:52;72.20;;;48.08;;
54795;SDS011;40693;43.884;20.340;2023-12-20T12:43:19;62.83;;;46.83;;
54795;SDS011;40693;43.884;20.340;2023-12-20T12:45:47;102.82;;;66.32;;
54795;SDS011;40693;43.884;20.340;2023-12-20T12:48:14;75.93;;;49.22;;
54795;SDS011;40693;43.884;20.340;2023-12-20T12:50:40;66.30;;;44.58;;
54795;SDS011;40693;43.884;20.340;2023-12-20T12:53:05;59.85;;;41.40;;
54795;SDS011;40693;43.884;20.340;2023-12-20T12:55:31;55.40;;;39.90;;
54795;SDS011;40693;43.884;20.340;2023-12-20T12:57:58;58.22;;;41.75;;
54795;SDS011;40693;43.884;20.340;2023-12-20T13:00:23;56.42;;;39.42;;
54795;SDS011;40693;43.884;20.340;2023-12-20T13:02:51;56.03;;;40.15;;
54795;SDS011;40693;43.884;20.340;2023-12-20T13:05:17;59.13;;;41.83;;
54795;SDS011;40693;43.884;20.340;2023-12-20T13:07:43;60.63;;;42.50;;
54795;SDS011;40693;43.884;20.340;2023-12-20T13:10:10;61.90;;;44.47;;
54795;SDS011;40693;43.884;20.340;2023-12-20T13:12:36;68.25;;;44.17;;
54795;SDS011;40693;43.884;20.340;2023-12-20T13:15:02;59.83;;;44.08;;
54795;SDS011;40693;43.884;20.340;2023-12-20T13:17:29;68.30;;;48.65;;
54795;SDS011;40693;43.884;20.340;2023-12-20T13:19:55;66.57;;;48.47;;
54795;SDS011;40693;43.884;20.340;2023-12-20T13:22:20;73.18;;;48.20;;
54795;SDS011;40693;43.884;20.340;2023-12-20T13:24:46;69.97;;;46.00;;
54795;SDS011;40693;43.884;20.340;2023-12-20T13:27:12;67.28;;;42.58;;
54795;SDS011;40693;43.884;20.340;2023-12-20T13:29:38;64.40;;;42.83;;
54795;SDS011;40693;43.884;20.340;2023-12-20T13:32:03;47.38;;;31.42;;
54795;SDS011;40693;43.884;20.340;2023-12-20T13:34:29;64.05;;;40.80;;
54795;SDS011;40693;43.884;20.340;2023-12-20T13:36:55;75.65;;;53.28;;
54795;SDS011;40693;43.884;20.340;2023-12-20T13:39:21;93.20;;;61.10;;
54795;SDS011;40693;43.884;20.340;2023-12-20T13:41:47;108.95;;;69.72;;
54795;SDS011;40693;43.884;20.340;2023-12-20T13:44:13;109.28;;;72.70;;
54795;SDS011;40693;43.884;20.340;2023-12-20T13:46:40;129.18;;;90.05;;
54795;SDS011;40693;43.884;20.340;2023-12-20T13:49:06;347.27;;;222.52;;
54795;SDS011;40693;43.884;20.340;2023-12-20T13:51:32;362.65;;;247.63;;
54795;SDS011;40693;43.884;20.340;2023-12-20T13:53:58;304.73;;;183.13;;